sensor_id;sensor_type;location;lat;lon;timestamp;pressure;altitude;pressure_sealevel;temperature;humidity
34328;BME280;20588;48.840;10.064;2023-02-10T00:01:17;98267.50;;;-6.89;nan
34328;BME280;20588;48.840;10.064;2023-02-10T00:03:44;98271.72;;;-6.89;nan
34328;BME280;20588;48.840;10.064;2023-02-10T00:06:11;98277.63;;;-6.92;nan
34328;BME280;20588;48.840;10.064;2023-02-10T00:08:38;98276.88;;;-6.94;nan
34328;BME280;20588;48.840;10.064;2023-02-10T00:11:07;98281.94;;;-6.95;nan
34328;BME280;20588;48.840;10.064;2023-02-10T00:13:33;98285.31;;;-6.96;nan
34328;BME280;20588;48.840;10.064;2023-02-10T00:16:06;98282.00;;;-6.97;nan
34328;BME280;20588;48.840;10.064;2023-02-10T00:18:33;98295.41;;;-6.99;nan
34328;BME280;20588;48.840;10.064;2023-02-10T00:21:12;98289.75;;;-7.03;nan
34328;BME280;20588;48.840;10.064;2023-02-10T00:23:38;98285.66;;;-7.05;nan
34328;BME280;20588;48.840;10.064;2023-02-10T00:26:05;98284.97;;;-7.09;nan
34328;BME280;20588;48.840;10.064;2023-02-10T00:28:33;98277.59;;;-7.12;nan
34328;BME280;20588;48.840;10.064;2023-02-10T00:31:04;98282.78;;;-7.16;nan
34328;BME280;20588;48.840;10.064;2023-02-10T00:33:30;98283.69;;;-7.19;nan
34328;BME280;20588;48.840;10.064;2023-02-10T00:35:56;98278.81;;;-7.22;nan
34328;BME280;20588;48.840;10.064;2023-02-10T00:38:22;98281.31;;;-7.22;nan
34328;BME280;20588;48.840;10.064;2023-02-10T00:40:48;98281.47;;;-7.26;nan
34328;BME280;20588;48.840;10.064;2023-02-10T00:43:14;98273.19;;;-7.27;nan
34328;BME280;20588;48.840;10.064;2023-02-10T00:45:40;98273.91;;;-7.25;nan
34328;BME280;20588;48.840;10.064;2023-02-10T00:48:06;98279.03;;;-7.28;nan
34328;BME280;20588;48.840;10.064;2023-02-10T00:50:32;98281.59;;;-7.29;nan
34328;BME280;20588;48.840;10.064;2023-02-10T00:52:58;98275.91;;;-7.33;nan
34328;BME280;20588;48.840;10.064;2023-02-10T00:55:24;98275.09;;;-7.33;nan
34328;BME280;20588;48.840;10.064;2023-02-10T00:57:50;98283.56;;;-7.37;nan
34328;BME280;20588;48.840;10.064;2023-02-10T01:00:16;98290.31;;;-7.39;nan
34328;BME280;20588;48.840;10.064;2023-02-10T01:02:42;98280.47;;;-7.44;nan
34328;BME280;20588;48.840;10.064;2023-02-10T01:05:08;98285.66;;;-7.48;nan
34328;BME280;20588;48.840;10.064;2023-02-10T01:07:34;98296.53;;;-7.51;nan
34328;BME280;20588;48.840;10.064;2023-02-10T01:10:00;98299.94;;;-7.52;nan
34328;BME280;20588;48.840;10.064;2023-02-10T01:12:26;98298.38;;;-7.55;nan
34328;BME280;20588;48.840;10.064;2023-02-10T01:14:52;98299.16;;;-7.54;nan
34328;BME280;20588;48.840;10.064;2023-02-10T01:17:18;98302.66;;;-7.58;nan
34328;BME280;20588;48.840;10.064;2023-02-10T01:19:44;98303.63;;;-7.62;nan
34328;BME280;20588;48.840;10.064;2023-02-10T01:22:10;98307.91;;;-7.66;nan
34328;BME280;20588;48.840;10.064;2023-02-10T01:24:36;98307.19;;;-7.69;nan
34328;BME280;20588;48.840;10.064;2023-02-10T01:27:03;98300.59;;;-7.70;nan
34328;BME280;20588;48.840;10.064;2023-02-10T01:29:29;98305.78;;;-7.76;nan
34328;BME280;20588;48.840;10.064;2023-02-10T01:31:55;98309.19;;;-7.77;nan
34328;BME280;20588;48.840;10.064;2023-02-10T01:34:21;98302.63;;;-7.81;nan
34328;BME280;20588;48.840;10.064;2023-02-10T01:36:47;98296.03;;;-7.82;nan
34328;BME280;20588;48.840;10.064;2023-02-10T01:39:13;98292.75;;;-7.84;nan
34328;BME280;20588;48.840;10.064;2023-02-10T01:41:39;98293.53;;;-7.82;nan
34328;BME280;20588;48.840;10.064;2023-02-10T01:45:02;98296.13;;;-7.85;nan
34328;BME280;20588;48.840;10.064;2023-02-10T01:46:53;98294.41;;;-7.83;nan
34328;BME280;20588;48.840;10.064;2023-02-10T01:49:28;98291.13;;;-7.85;nan
34328;BME280;20588;48.840;10.064;2023-02-10T01:52:02;98295.41;;;-7.89;nan
34328;BME280;20588;48.840;10.064;2023-02-10T01:54:47;98293.84;;;-7.91;nan
34328;BME280;20588;48.840;10.064;2023-02-10T01:57:15;98288.13;;;-7.95;nan
34328;BME280;20588;48.840;10.064;2023-02-10T01:59:42;98294.94;;;-7.98;nan
34328;BME280;20588;48.840;10.064;2023-02-10T02:02:09;98295.69;;;-7.96;nan
34328;BME280;20588;48.840;10.064;2023-02-10T02:05:06;98288.31;;;-7.99;nan
34328;BME280;20588;48.840;10.064;2023-02-10T02:07:35;98296.63;;;-7.99;nan
34328;BME280;20588;48.840;10.064;2023-02-10T02:10:04;98297.50;;;-8.00;nan
34328;BME280;20588;48.840;10.064;2023-02-10T02:12:53;98285.16;;;-8.04;nan
34328;BME280;20588;48.840;10.064;2023-02-10T02:15:36;98293.44;;;-8.04;nan
34328;BME280;20588;48.840;10.064;2023-02-10T02:28:57;98295.53;;;-8.16;nan
34328;BME280;20588;48.840;10.064;2023-02-10T02:31:45;98293.91;;;-8.17;nan
34328;BME280;20588;48.840;10.064;2023-02-10T02:34:49;98289.03;;;-8.20;nan
34328;BME280;20588;48.840;10.064;2023-02-10T02:37:32;98291.72;;;-8.25;nan
34328;BME280;20588;48.840;10.064;2023-02-10T02:39:59;98297.59;;;-8.26;nan
34328;BME280;20588;48.840;10.064;2023-02-10T02:42:27;98294.31;;;-8.28;nan
34328;BME280;20588;48.840;10.064;2023-02-10T02:44:56;98300.22;;;-8.30;nan
34328;BME280;20588;48.840;10.064;2023-02-10T02:50:24;98306.03;;;-8.30;nan
34328;BME280;20588;48.840;10.064;2023-02-10T02:52:58;98314.31;;;-8.29;nan
34328;BME280;20588;48.840;10.064;2023-02-10T03:01:29;98323.56;;;-8.33;nan
34328;BME280;20588;48.840;10.064;2023-02-10T03:03:58;98326.13;;;-8.34;nan
34328;BME280;20588;48.840;10.064;2023-02-10T03:06:24;98329.50;;;-8.35;nan
34328;BME280;20588;48.840;10.064;2023-02-10T03:08:50;98332.03;;;-8.37;nan
34328;BME280;20588;48.840;10.064;2023-02-10T03:11:17;98327.97;;;-8.39;nan
34328;BME280;20588;48.840;10.064;2023-02-10T03:13:43;98334.59;;;-8.38;nan
34328;BME280;20588;48.840;10.064;2023-02-10T03:16:09;98339.56;;;-8.38;nan
34328;BME280;20588;48.840;10.064;2023-02-10T03:18:35;98340.44;;;-8.39;nan
34328;BME280;20588;48.840;10.064;2023-02-10T03:21:01;98339.47;;;-8.35;nan
34328;BME280;20588;48.840;10.064;2023-02-10T03:23:27;98339.44;;;-8.34;nan
34328;BME280;20588;48.840;10.064;2023-02-10T03:25:53;98342.00;;;-8.37;nan
34328;BME280;20588;48.840;10.064;2023-02-10T03:28:19;98352.81;;;-8.36;nan
34328;BME280;20588;48.840;10.064;2023-02-10T03:30:45;98340.25;;;-8.33;nan
34328;BME280;20588;48.840;10.064;2023-02-10T03:33:14;98341.91;;;-8.34;nan
34328;BME280;20588;48.840;10.064;2023-02-10T03:35:42;98339.38;;;-8.32;nan
34328;BME280;20588;48.840;10.064;2023-02-10T03:38:09;98339.22;;;-8.28;nan
34328;BME280;20588;48.840;10.064;2023-02-10T03:40:35;98344.81;;;-8.21;nan
34328;BME280;20588;48.840;10.064;2023-02-10T03:43:03;98342.31;;;-8.21;nan
34328;BME280;20588;48.840;10.064;2023-02-10T03:45:29;98348.91;;;-8.20;nan
34328;BME280;20588;48.840;10.064;2023-02-10T03:47:55;98353.81;;;-8.17;nan
34328;BME280;20588;48.840;10.064;2023-02-10T03:50:21;98356.25;;;-8.16;nan
34328;BME280;20588;48.840;10.064;2023-02-10T03:52:48;98350.50;;;-8.18;nan
34328;BME280;20588;48.840;10.064;2023-02-10T03:55:14;98344.81;;;-8.21;nan
34328;BME280;20588;48.840;10.064;2023-02-10T03:57:43;98353.28;;;-8.25;nan
34328;BME280;20588;48.840;10.064;2023-02-10T04:00:10;98348.31;;;-8.27;nan
34328;BME280;20588;48.840;10.064;2023-02-10T04:02:36;98346.56;;;-8.23;nan
34328;BME280;20588;48.840;10.064;2023-02-10T04:05:02;98345.78;;;-8.25;nan
34328;BME280;20588;48.840;10.064;2023-02-10T04:07:29;98343.19;;;-8.22;nan
34328;BME280;20588;48.840;10.064;2023-02-10T04:09:55;98336.41;;;-8.19;nan
34328;BME280;20588;48.840;10.064;2023-02-10T04:12:21;98348.88;;;-8.19;nan
34328;BME280;20588;48.840;10.064;2023-02-10T04:14:47;98358.75;;;-8.16;nan
34328;BME280;20588;48.840;10.064;2023-02-10T04:17:13;98357.03;;;-8.14;nan
34328;BME280;20588;48.840;10.064;2023-02-10T04:19:39;98359.69;;;-8.18;nan
34328;BME280;20588;48.840;10.064;2023-02-10T04:22:05;98353.09;;;-8.21;nan
34328;BME280;20588;48.840;10.064;2023-02-10T04:24:31;98360.75;;;-8.25;nan
34328;BME280;20588;48.840;10.064;2023-02-10T04:26:57;98355.84;;;-8.28;nan
34328;BME280;20588;48.840;10.064;2023-02-10T04:29:23;98363.50;;;-8.33;nan
34328;BME280;20588;48.840;10.064;2023-02-10T04:31:49;98361.06;;;-8.34;nan
34328;BME280;20588;48.840;10.064;2023-02-10T04:34:15;98355.31;;;-8.36;nan
34328;BME280;20588;48.840;10.064;2023-02-10T04:36:41;98366.97;;;-8.37;nan
34328;BME280;20588;48.840;10.064;2023-02-10T04:39:07;98350.38;;;-8.38;nan
34328;BME280;20588;48.840;10.064;2023-02-10T04:41:33;98365.38;;;-8.39;nan
34328;BME280;20588;48.840;10.064;2023-02-10T04:43:59;98361.16;;;-8.37;nan
34328;BME280;20588;48.840;10.064;2023-02-10T04:46:25;98367.06;;;-8.40;nan
34328;BME280;20588;48.840;10.064;2023-02-10T04:48:51;98372.16;;;-8.43;nan
34328;BME280;20588;48.840;10.064;2023-02-10T04:51:17;98372.19;;;-8.44;nan
34328;BME280;20588;48.840;10.064;2023-02-10T04:53:43;98373.03;;;-8.44;nan
34328;BME280;20588;48.840;10.064;2023-02-10T04:56:10;98372.19;;;-8.44;nan
34328;BME280;20588;48.840;10.064;2023-02-10T04:58:36;98378.06;;;-8.45;nan
34328;BME280;20588;48.840;10.064;2023-02-10T05:01:03;98370.56;;;-8.45;nan
34328;BME280;20588;48.840;10.064;2023-02-10T05:03:29;98376.34;;;-8.45;nan
34328;BME280;20588;48.840;10.064;2023-02-10T05:05:55;98386.44;;;-8.48;nan
34328;BME280;20588;48.840;10.064;2023-02-10T05:08:21;98388.19;;;-8.50;nan
34328;BME280;20588;48.840;10.064;2023-02-10T05:10:50;98389.94;;;-8.53;nan
34328;BME280;20588;48.840;10.064;2023-02-10T05:13:17;98393.22;;;-8.51;nan
34328;BME280;20588;48.840;10.064;2023-02-10T05:15:43;98397.31;;;-8.50;nan
34328;BME280;20588;48.840;10.064;2023-02-10T05:18:09;98400.78;;;-8.54;nan
34328;BME280;20588;48.840;10.064;2023-02-10T05:20:35;98393.31;;;-8.54;nan
34328;BME280;20588;48.840;10.064;2023-02-10T05:23:01;98397.50;;;-8.56;nan
34328;BME280;20588;48.840;10.064;2023-02-10T05:25:28;98402.50;;;-8.56;nan
34328;BME280;20588;48.840;10.064;2023-02-10T05:27:54;98408.31;;;-8.56;nan
34328;BME280;20588;48.840;10.064;2023-02-10T05:30:20;98412.38;;;-8.53;nan
34328;BME280;20588;48.840;10.064;2023-02-10T05:32:46;98411.59;;;-8.55;nan
34328;BME280;20588;48.840;10.064;2023-02-10T05:35:12;98408.38;;;-8.57;nan
34328;BME280;20588;48.840;10.064;2023-02-10T05:37:38;98410.84;;;-8.57;nan
34328;BME280;20588;48.840;10.064;2023-02-10T05:40:05;98406.72;;;-8.58;nan
34328;BME280;20588;48.840;10.064;2023-02-10T05:42:31;98417.50;;;-8.58;nan
34328;BME280;20588;48.840;10.064;2023-02-10T05:44:57;98414.25;;;-8.60;nan
34328;BME280;20588;48.840;10.064;2023-02-10T05:47:23;98415.06;;;-8.59;nan
34328;BME280;20588;48.840;10.064;2023-02-10T05:49:49;98413.44;;;-8.60;nan
34328;BME280;20588;48.840;10.064;2023-02-10T05:52:15;98423.41;;;-8.60;nan
34328;BME280;20588;48.840;10.064;2023-02-10T05:54:41;98419.31;;;-8.63;nan
34328;BME280;20588;48.840;10.064;2023-02-10T05:57:08;98416.78;;;-8.61;nan
34328;BME280;20588;48.840;10.064;2023-02-10T05:59:34;98417.59;;;-8.61;nan
34328;BME280;20588;48.840;10.064;2023-02-10T06:02:00;98414.28;;;-8.61;nan
34328;BME280;20588;48.840;10.064;2023-02-10T06:04:27;98424.22;;;-8.60;nan
34328;BME280;20588;48.840;10.064;2023-02-10T06:06:53;98420.84;;;-8.57;nan
34328;BME280;20588;48.840;10.064;2023-02-10T06:09:19;98421.59;;;-8.55;nan
34328;BME280;20588;48.840;10.064;2023-02-10T06:11:46;98424.13;;;-8.57;nan
34328;BME280;20588;48.840;10.064;2023-02-10T06:14:12;98435.06;;;-8.61;nan
34328;BME280;20588;48.840;10.064;2023-02-10T06:16:38;98435.97;;;-8.63;nan
34328;BME280;20588;48.840;10.064;2023-02-10T06:19:05;98443.50;;;-8.65;nan
34328;BME280;20588;48.840;10.064;2023-02-10T06:21:31;98439.31;;;-8.64;nan
34328;BME280;20588;48.840;10.064;2023-02-10T06:23:57;98439.25;;;-8.63;nan
34328;BME280;20588;48.840;10.064;2023-02-10T06:26:23;98438.44;;;-8.62;nan
34328;BME280;20588;48.840;10.064;2023-02-10T06:28:49;98433.41;;;-8.60;nan
34328;BME280;20588;48.840;10.064;2023-02-10T06:31:15;98436.63;;;-8.58;nan
34328;BME280;20588;48.840;10.064;2023-02-10T06:33:41;98436.53;;;-8.55;nan
34328;BME280;20588;48.840;10.064;2023-02-10T06:36:08;98443.09;;;-8.51;nan
34328;BME280;20588;48.840;10.064;2023-02-10T06:38:35;98449.69;;;-8.50;nan
34328;BME280;20588;48.840;10.064;2023-02-10T06:41:01;98451.22;;;-8.46;nan
34328;BME280;20588;48.840;10.064;2023-02-10T06:43:27;98453.72;;;-8.46;nan
34328;BME280;20588;48.840;10.064;2023-02-10T06:45:53;98465.31;;;-8.44;nan
34328;BME280;20588;48.840;10.064;2023-02-10T06:48:20;98469.38;;;-8.41;nan
34328;BME280;20588;48.840;10.064;2023-02-10T06:50:46;98476.72;;;-8.37;nan
34328;BME280;20588;48.840;10.064;2023-02-10T06:53:13;98470.66;;;-8.30;nan
34328;BME280;20588;48.840;10.064;2023-02-10T06:55:39;98480.50;;;-8.25;nan
34328;BME280;20588;48.840;10.064;2023-02-10T06:58:05;98479.53;;;-8.21;nan
34328;BME280;20588;48.840;10.064;2023-02-10T07:00:32;98482.50;;;-8.10;nan
34328;BME280;20588;48.840;10.064;2023-02-10T07:02:58;98483.88;;;-8.00;nan
34328;BME280;20588;48.840;10.064;2023-02-10T07:05:24;98485.09;;;-7.87;nan
34328;BME280;20588;48.840;10.064;2023-02-10T07:07:51;98487.09;;;-7.72;nan
34328;BME280;20588;48.840;10.064;2023-02-10T07:10:18;98486.50;;;-7.54;nan
34328;BME280;20588;48.840;10.064;2023-02-10T07:12:44;98485.00;;;-7.33;nan
34328;BME280;20588;48.840;10.064;2023-02-10T07:15:13;98488.31;;;-7.10;nan
34328;BME280;20588;48.840;10.064;2023-02-10T07:17:39;98496.66;;;-6.86;nan
34328;BME280;20588;48.840;10.064;2023-02-10T07:20:06;98492.38;;;-6.61;nan
34328;BME280;20588;48.840;10.064;2023-02-10T07:22:32;98491.47;;;-6.37;nan
34328;BME280;20588;48.840;10.064;2023-02-10T07:24:59;98488.34;;;-6.21;nan
34328;BME280;20588;48.840;10.064;2023-02-10T07:27:25;98491.03;;;-6.04;nan
34328;BME280;20588;48.840;10.064;2023-02-10T07:29:51;98483.09;;;-5.73;nan
34328;BME280;20588;48.840;10.064;2023-02-10T07:32:17;98496.38;;;-5.31;nan
34328;BME280;20588;48.840;10.064;2023-02-10T07:34:43;98498.25;;;-4.77;nan
34328;BME280;20588;48.840;10.064;2023-02-10T07:37:09;98502.09;;;-4.33;nan
34328;BME280;20588;48.840;10.064;2023-02-10T07:39:35;98501.00;;;-4.09;nan
34328;BME280;20588;48.840;10.064;2023-02-10T07:42:02;98496.09;;;-3.95;nan
34328;BME280;20588;48.840;10.064;2023-02-10T07:44:28;98501.88;;;-3.93;nan
34328;BME280;20588;48.840;10.064;2023-02-10T07:46:54;98504.31;;;-3.92;nan
34328;BME280;20588;48.840;10.064;2023-02-10T07:49:20;98504.19;;;-3.89;nan
34328;BME280;20588;48.840;10.064;2023-02-10T07:51:46;98509.53;;;-3.78;nan
34328;BME280;20588;48.840;10.064;2023-02-10T07:54:12;98503.63;;;-3.42;nan
34328;BME280;20588;48.840;10.064;2023-02-10T07:56:39;98502.66;;;-2.90;nan
34328;BME280;20588;48.840;10.064;2023-02-10T07:59:05;98503.88;;;-2.18;nan
34328;BME280;20588;48.840;10.064;2023-02-10T08:01:31;98499.19;;;-1.65;nan
34328;BME280;20588;48.840;10.064;2023-02-10T08:03:57;98503.78;;;-1.42;nan
34328;BME280;20588;48.840;10.064;2023-02-10T08:06:24;98500.03;;;-1.21;nan
34328;BME280;20588;48.840;10.064;2023-02-10T08:08:51;98506.28;;;-0.98;nan
34328;BME280;20588;48.840;10.064;2023-02-10T08:11:17;98507.22;;;-0.71;nan
34328;BME280;20588;48.840;10.064;2023-02-10T08:13:44;98493.19;;;-0.08;nan
34328;BME280;20588;48.840;10.064;2023-02-10T08:16:11;98485.63;;;0.31;nan
34328;BME280;20588;48.840;10.064;2023-02-10T08:18:38;98485.34;;;0.61;nan
34328;BME280;20588;48.840;10.064;2023-02-10T08:21:04;98483.75;;;0.72;nan
34328;BME280;20588;48.840;10.064;2023-02-10T08:23:32;98484.56;;;0.98;nan
34328;BME280;20588;48.840;10.064;2023-02-10T08:26:02;98481.22;;;0.97;nan
34328;BME280;20588;48.840;10.064;2023-02-10T08:28:28;98489.91;;;1.43;nan
34328;BME280;20588;48.840;10.064;2023-02-10T08:30:58;98484.75;;;2.74;nan
34328;BME280;20588;48.840;10.064;2023-02-10T08:33:24;98482.44;;;3.92;nan
34328;BME280;20588;48.840;10.064;2023-02-10T08:35:50;98485.06;;;4.95;nan
34328;BME280;20588;48.840;10.064;2023-02-10T08:38:16;98488.03;;;5.60;nan
34328;BME280;20588;48.840;10.064;2023-02-10T08:40:42;98492.06;;;6.59;nan
34328;BME280;20588;48.840;10.064;2023-02-10T08:43:08;98491.56;;;8.02;nan
34328;BME280;20588;48.840;10.064;2023-02-10T08:45:34;98488.38;;;9.22;nan
34328;BME280;20588;48.840;10.064;2023-02-10T08:48:00;98487.94;;;10.09;nan
34328;BME280;20588;48.840;10.064;2023-02-10T08:50:27;98488.97;;;10.64;nan
34328;BME280;20588;48.840;10.064;2023-02-10T08:52:53;98489.75;;;10.65;nan
34328;BME280;20588;48.840;10.064;2023-02-10T08:55:19;98493.94;;;10.50;nan
34328;BME280;20588;48.840;10.064;2023-02-10T08:57:45;98504.09;;;9.94;nan
34328;BME280;20588;48.840;10.064;2023-02-10T09:00:11;98378.47;;;8.66;nan
34328;BME280;20588;48.840;10.064;2023-02-10T09:02:37;98502.22;;;9.62;nan
34328;BME280;20588;48.840;10.064;2023-02-10T09:05:04;98490.56;;;10.41;nan
34328;BME280;20588;48.840;10.064;2023-02-10T09:07:30;98480.03;;;11.62;nan
34328;BME280;20588;48.840;10.064;2023-02-10T09:09:56;98480.28;;;13.47;nan
34328;BME280;20588;48.840;10.064;2023-02-10T09:12:22;98478.25;;;15.26;nan
34328;BME280;20588;48.840;10.064;2023-02-10T09:14:48;98465.16;;;16.74;nan
34328;BME280;20588;48.840;10.064;2023-02-10T09:17:14;98471.75;;;18.61;nan
34328;BME280;20588;48.840;10.064;2023-02-10T09:19:40;98469.59;;;19.25;nan
34328;BME280;20588;48.840;10.064;2023-02-10T09:22:07;98474.44;;;19.21;nan
34328;BME280;20588;48.840;10.064;2023-02-10T09:24:34;98472.78;;;19.27;nan
34328;BME280;20588;48.840;10.064;2023-02-10T09:27:00;98457.84;;;20.59;nan
34328;BME280;20588;48.840;10.064;2023-02-10T09:29:26;98463.16;;;21.28;nan
34328;BME280;20588;48.840;10.064;2023-02-10T09:31:52;98461.53;;;21.04;nan
34328;BME280;20588;48.840;10.064;2023-02-10T09:34:18;98457.53;;;21.48;nan
34328;BME280;20588;48.840;10.064;2023-02-10T09:36:44;98457.06;;;21.51;nan
34328;BME280;20588;48.840;10.064;2023-02-10T09:39:10;98462.91;;;21.92;nan
34328;BME280;20588;48.840;10.064;2023-02-10T09:44:11;98463.94;;;22.64;nan
34328;BME280;20588;48.840;10.064;2023-02-10T09:54:49;98468.25;;;24.59;nan
34328;BME280;20588;48.840;10.064;2023-02-10T09:57:22;98459.28;;;24.87;nan
34328;BME280;20588;48.840;10.064;2023-02-10T09:59:52;98454.59;;;25.35;nan
34328;BME280;20588;48.840;10.064;2023-02-10T10:02:32;98456.66;;;24.92;nan
34328;BME280;20588;48.840;10.064;2023-02-10T10:05:03;98461.03;;;24.49;nan
34328;BME280;20588;48.840;10.064;2023-02-10T10:07:35;98460.44;;;25.52;nan
34328;BME280;20588;48.840;10.064;2023-02-10T10:10:20;98463.25;;;25.92;nan
34328;BME280;20588;48.840;10.064;2023-02-10T10:12:47;98462.41;;;25.72;nan
34328;BME280;20588;48.840;10.064;2023-02-10T10:15:18;98459.88;;;26.07;nan
34328;BME280;20588;48.840;10.064;2023-02-10T10:18:03;98463.63;;;26.31;nan
34328;BME280;20588;48.840;10.064;2023-02-10T10:20:43;98461.53;;;26.48;nan
34328;BME280;20588;48.840;10.064;2023-02-10T10:23:36;98472.94;;;26.69;nan
34328;BME280;20588;48.840;10.064;2023-02-10T10:26:47;98471.28;;;26.37;nan
34328;BME280;20588;48.840;10.064;2023-02-10T10:29:21;98467.06;;;26.46;nan
34328;BME280;20588;48.840;10.064;2023-02-10T10:31:58;98459.97;;;26.82;nan
34328;BME280;20588;48.840;10.064;2023-02-10T10:34:32;98453.88;;;26.82;nan
34328;BME280;20588;48.840;10.064;2023-02-10T10:37:09;98453.06;;;26.51;nan
34328;BME280;20588;48.840;10.064;2023-02-10T10:39:40;98440.66;;;26.31;nan
34328;BME280;20588;48.840;10.064;2023-02-10T10:44:52;98444.91;;;26.93;nan
34328;BME280;20588;48.840;10.064;2023-02-10T10:47:40;98443.25;;;27.07;nan
34328;BME280;20588;48.840;10.064;2023-02-10T10:50:17;98437.97;;;27.17;nan
34328;BME280;20588;48.840;10.064;2023-02-10T10:52:46;98436.00;;;27.52;nan
34328;BME280;20588;48.840;10.064;2023-02-10T10:58:08;98439.31;;;27.93;nan
34328;BME280;20588;48.840;10.064;2023-02-10T11:00:36;98436.47;;;27.69;nan
34328;BME280;20588;48.840;10.064;2023-02-10T11:03:05;98434.19;;;28.06;nan
34328;BME280;20588;48.840;10.064;2023-02-10T11:05:37;98433.00;;;27.74;nan
34328;BME280;20588;48.840;10.064;2023-02-10T11:08:05;98437.81;;;27.67;nan
34328;BME280;20588;48.840;10.064;2023-02-10T11:10:46;98430.63;;;27.72;nan
34328;BME280;20588;48.840;10.064;2023-02-10T11:13:30;98425.81;;;27.89;nan
34328;BME280;20588;48.840;10.064;2023-02-10T11:16:05;98423.28;;;27.59;nan
34328;BME280;20588;48.840;10.064;2023-02-10T11:18:32;98420.50;;;27.31;nan
34328;BME280;20588;48.840;10.064;2023-02-10T11:21:05;98418.84;;;27.45;nan
34328;BME280;20588;48.840;10.064;2023-02-10T11:23:34;98423.84;;;27.51;nan
34328;BME280;20588;48.840;10.064;2023-02-10T11:26:06;98426.56;;;27.31;nan
34328;BME280;20588;48.840;10.064;2023-02-10T11:28:42;98419.56;;;26.72;nan
34328;BME280;20588;48.840;10.064;2023-02-10T11:31:30;98420.06;;;26.64;nan
34328;BME280;20588;48.840;10.064;2023-02-10T11:34:21;98412.84;;;25.94;nan
34328;BME280;20588;48.840;10.064;2023-02-10T11:36:49;98411.59;;;25.35;nan
34328;BME280;20588;48.840;10.064;2023-02-10T11:39:33;98418.50;;;24.04;nan
34328;BME280;20588;48.840;10.064;2023-02-10T11:42:22;98421.03;;;22.91;nan
34328;BME280;20588;48.840;10.064;2023-02-10T11:44:58;98417.41;;;21.47;nan
34328;BME280;20588;48.840;10.064;2023-02-10T11:47:27;98414.81;;;20.43;nan
34328;BME280;20588;48.840;10.064;2023-02-10T11:49:54;98407.34;;;19.58;nan
34328;BME280;20588;48.840;10.064;2023-02-10T11:52:22;98410.56;;;18.81;nan
34328;BME280;20588;48.840;10.064;2023-02-10T11:54:50;98412.91;;;18.65;nan
34328;BME280;20588;48.840;10.064;2023-02-10T12:00:34;98407.59;;;17.91;nan
34328;BME280;20588;48.840;10.064;2023-02-10T12:08:42;98397.56;;;16.80;nan
34328;BME280;20588;48.840;10.064;2023-02-10T12:11:28;98389.16;;;16.65;nan
34328;BME280;20588;48.840;10.064;2023-02-10T12:16:43;98388.38;;;16.58;nan
34328;BME280;20588;48.840;10.064;2023-02-10T12:22:23;98397.13;;;16.05;nan
34328;BME280;20588;48.840;10.064;2023-02-10T12:25:19;98401.47;;;15.85;nan
34328;BME280;20588;48.840;10.064;2023-02-10T12:33:42;98398.53;;;15.41;nan
34328;BME280;20588;48.840;10.064;2023-02-10T12:36:28;98393.38;;;15.13;nan
34328;BME280;20588;48.840;10.064;2023-02-10T12:39:14;98391.63;;;15.20;nan
34328;BME280;20588;48.840;10.064;2023-02-10T12:45:00;98391.16;;;15.04;nan
34328;BME280;20588;48.840;10.064;2023-02-10T12:53:06;98379.03;;;14.77;nan
34328;BME280;20588;48.840;10.064;2023-02-10T12:55:48;98374.44;;;14.51;nan
34328;BME280;20588;48.840;10.064;2023-02-10T12:58:30;98375.19;;;14.45;nan
34328;BME280;20588;48.840;10.064;2023-02-10T13:03:37;98366.81;;;14.22;nan
34328;BME280;20588;48.840;10.064;2023-02-10T13:06:41;98367.88;;;14.06;nan
34328;BME280;20588;48.840;10.064;2023-02-10T13:09:32;98376.69;;;13.91;nan
34328;BME280;20588;48.840;10.064;2023-02-10T13:12:18;98376.31;;;13.73;nan
34328;BME280;20588;48.840;10.064;2023-02-10T13:14:48;98372.81;;;13.45;nan
34328;BME280;20588;48.840;10.064;2023-02-10T13:17:17;98373.56;;;13.39;nan
34328;BME280;20588;48.840;10.064;2023-02-10T13:19:57;98372.81;;;13.45;nan
34328;BME280;20588;48.840;10.064;2023-02-10T13:25:11;98364.56;;;13.06;nan
34328;BME280;20588;48.840;10.064;2023-02-10T13:31:10;98365.81;;;12.66;nan
34328;BME280;20588;48.840;10.064;2023-02-10T13:33:51;98358.91;;;12.44;nan
34328;BME280;20588;48.840;10.064;2023-02-10T13:36:26;98350.44;;;12.35;nan
34328;BME280;20588;48.840;10.064;2023-02-10T13:39:04;98353.50;;;12.16;nan
34328;BME280;20588;48.840;10.064;2023-02-10T13:41:34;98356.75;;;12.10;nan
34328;BME280;20588;48.840;10.064;2023-02-10T13:44:30;98353.34;;;11.95;nan
34328;BME280;20588;48.840;10.064;2023-02-10T13:49:49;98355.56;;;11.76;nan
34328;BME280;20588;48.840;10.064;2023-02-10T13:52:29;98361.59;;;11.68;nan
34328;BME280;20588;48.840;10.064;2023-02-10T13:55:27;98357.13;;;11.54;nan
34328;BME280;20588;48.840;10.064;2023-02-10T13:58:06;98362.09;;;11.56;nan
34328;BME280;20588;48.840;10.064;2023-02-10T14:00:49;98361.41;;;11.39;nan
34328;BME280;20588;48.840;10.064;2023-02-10T14:05:57;98365.81;;;11.23;nan
34328;BME280;20588;48.840;10.064;2023-02-10T14:08:28;98362.66;;;11.13;nan
34328;BME280;20588;48.840;10.064;2023-02-10T14:11:42;98370.44;;;10.96;nan
34328;BME280;20588;48.840;10.064;2023-02-10T14:14:14;98370.97;;;10.84;nan
34328;BME280;20588;48.840;10.064;2023-02-10T14:16:43;98374.22;;;10.70;nan
34328;BME280;20588;48.840;10.064;2023-02-10T14:21:53;98372.66;;;10.37;nan
34328;BME280;20588;48.840;10.064;2023-02-10T14:24:26;98370.91;;;10.21;nan
34328;BME280;20588;48.840;10.064;2023-02-10T14:26:54;98369.63;;;10.17;nan
34328;BME280;20588;48.840;10.064;2023-02-10T14:29:21;98376.34;;;10.10;nan
34328;BME280;20588;48.840;10.064;2023-02-10T14:31:52;98375.41;;;10.11;nan
34328;BME280;20588;48.840;10.064;2023-02-10T14:34:26;98375.34;;;9.95;nan
34328;BME280;20588;48.840;10.064;2023-02-10T14:36:58;98379.84;;;9.85;nan
34328;BME280;20588;48.840;10.064;2023-02-10T14:39:27;98377.75;;;9.73;nan
34328;BME280;20588;48.840;10.064;2023-02-10T14:41:59;98382.72;;;9.58;nan
34328;BME280;20588;48.840;10.064;2023-02-10T14:47:16;98371.50;;;9.26;nan
34328;BME280;20588;48.840;10.064;2023-02-10T14:49:43;98364.44;;;9.11;nan
34328;BME280;20588;48.840;10.064;2023-02-10T14:52:28;98358.75;;;9.00;nan